sensor_id;sensor_type;location;lat;lon;timestamp;P1;durP1;ratioP1;P2;durP2;ratioP2
13445;SDS011;6795;51.232;3.764;2023-05-16T00:00:44;11.65;;;1.38;;
13445;SDS011;6795;51.232;3.764;2023-05-16T00:03:56;12.32;;;1.80;;
13445;SDS011;6795;51.232;3.764;2023-05-16T00:07:06;7.47;;;1.17;;
13445;SDS011;6795;51.232;3.764;2023-05-16T00:10:30;7.50;;;0.90;;
13445;SDS011;6795;51.232;3.764;2023-05-16T00:13:48;11.63;;;1.23;;
13445;SDS011;6795;51.232;3.764;2023-05-16T00:17:32;11.75;;;1.48;;
13445;SDS011;6795;51.232;3.764;2023-05-16T00:20:42;9.20;;;1.45;;
13445;SDS011;6795;51.232;3.764;2023-05-16T00:24:16;6.10;;;0.80;;
13445;SDS011;6795;51.232;3.764;2023-05-16T00:27:22;8.98;;;1.58;;
13445;SDS011;6795;51.232;3.764;2023-05-16T00:30:42;10.75;;;1.52;;
13445;SDS011;6795;51.232;3.764;2023-05-16T00:41:21;12.48;;;1.10;;
13445;SDS011;6795;51.232;3.764;2023-05-16T00:44:37;11.48;;;1.45;;
13445;SDS011;6795;51.232;3.764;2023-05-16T00:48:05;9.80;;;1.40;;
13445;SDS011;6795;51.232;3.764;2023-05-16T00:51:53;6.88;;;0.85;;
13445;SDS011;6795;51.232;3.764;2023-05-16T00:54:52;11.73;;;0.95;;
13445;SDS011;6795;51.232;3.764;2023-05-16T00:57:55;9.63;;;1.17;;
13445;SDS011;6795;51.232;3.764;2023-05-16T01:04:31;7.93;;;0.80;;
13445;SDS011;6795;51.232;3.764;2023-05-16T01:07:49;9.85;;;1.17;;
13445;SDS011;6795;51.232;3.764;2023-05-16T01:11:15;5.40;;;1.20;;
13445;SDS011;6795;51.232;3.764;2023-05-16T01:14:43;13.68;;;1.88;;
13445;SDS011;6795;51.232;3.764;2023-05-16T01:17:48;10.98;;;1.17;;
13445;SDS011;6795;51.232;3.764;2023-05-16T01:21:41;14.48;;;1.05;;
13445;SDS011;6795;51.232;3.764;2023-05-16T01:24:26;7.05;;;1.45;;
13445;SDS011;6795;51.232;3.764;2023-05-16T01:39:01;11.65;;;1.80;;
13445;SDS011;6795;51.232;3.764;2023-05-16T01:42:38;10.80;;;1.60;;
13445;SDS011;6795;51.232;3.764;2023-05-16T01:45:31;10.32;;;1.55;;
13445;SDS011;6795;51.232;3.764;2023-05-16T01:48:52;14.00;;;1.35;;
13445;SDS011;6795;51.232;3.764;2023-05-16T01:55:53;14.68;;;1.25;;
13445;SDS011;6795;51.232;3.764;2023-05-16T01:58:54;13.15;;;1.52;;
13445;SDS011;6795;51.232;3.764;2023-05-16T02:02:10;12.38;;;1.73;;
13445;SDS011;6795;51.232;3.764;2023-05-16T02:05:45;15.73;;;1.95;;
13445;SDS011;6795;51.232;3.764;2023-05-16T02:12:23;9.05;;;0.82;;
13445;SDS011;6795;51.232;3.764;2023-05-16T02:15:28;9.40;;;1.00;;
13445;SDS011;6795;51.232;3.764;2023-05-16T02:18:51;15.20;;;1.83;;
13445;SDS011;6795;51.232;3.764;2023-05-16T02:22:10;9.82;;;1.13;;
13445;SDS011;6795;51.232;3.764;2023-05-16T02:28:55;15.50;;;1.70;;
13445;SDS011;6795;51.232;3.764;2023-05-16T02:32:11;8.60;;;1.05;;
13445;SDS011;6795;51.232;3.764;2023-05-16T02:35:38;14.18;;;1.77;;
13445;SDS011;6795;51.232;3.764;2023-05-16T02:39:19;9.75;;;1.55;;
13445;SDS011;6795;51.232;3.764;2023-05-16T02:49:40;16.65;;;1.65;;
13445;SDS011;6795;51.232;3.764;2023-05-16T02:52:55;14.45;;;1.85;;
13445;SDS011;6795;51.232;3.764;2023-05-16T02:56:15;12.95;;;1.88;;
13445;SDS011;6795;51.232;3.764;2023-05-16T02:59:19;13.23;;;1.80;;
13445;SDS011;6795;51.232;3.764;2023-05-16T03:06:24;9.70;;;1.40;;
13445;SDS011;6795;51.232;3.764;2023-05-16T03:09:39;9.60;;;1.17;;
13445;SDS011;6795;51.232;3.764;2023-05-16T03:12:56;12.63;;;2.08;;
13445;SDS011;6795;51.232;3.764;2023-05-16T03:16:18;7.70;;;1.35;;
13445;SDS011;6795;51.232;3.764;2023-05-16T03:19:30;13.75;;;1.98;;
13445;SDS011;6795;51.232;3.764;2023-05-16T03:22:32;9.25;;;1.27;;
13445;SDS011;6795;51.232;3.764;2023-05-16T03:26:26;12.48;;;2.25;;
13445;SDS011;6795;51.232;3.764;2023-05-16T03:30:05;9.75;;;1.50;;
13445;SDS011;6795;51.232;3.764;2023-05-16T03:34:40;11.57;;;1.77;;
13445;SDS011;6795;51.232;3.764;2023-05-16T03:38:49;13.20;;;1.65;;
13445;SDS011;6795;51.232;3.764;2023-05-16T03:42:28;11.93;;;1.77;;
13445;SDS011;6795;51.232;3.764;2023-05-16T03:46:40;18.50;;;2.07;;
13445;SDS011;6795;51.232;3.764;2023-05-16T03:50:42;13.38;;;2.40;;
13445;SDS011;6795;51.232;3.764;2023-05-16T03:58:14;14.32;;;2.30;;
13445;SDS011;6795;51.232;3.764;2023-05-16T04:02:11;11.57;;;1.37;;
13445;SDS011;6795;51.232;3.764;2023-05-16T04:12:23;15.40;;;1.88;;
13445;SDS011;6795;51.232;3.764;2023-05-16T04:30:23;12.48;;;1.65;;
13445;SDS011;6795;51.232;3.764;2023-05-16T04:34:10;16.00;;;1.92;;
13445;SDS011;6795;51.232;3.764;2023-05-16T04:42:16;14.80;;;1.88;;
13445;SDS011;6795;51.232;3.764;2023-05-16T04:46:04;10.75;;;1.45;;
13445;SDS011;6795;51.232;3.764;2023-05-16T04:49:38;10.25;;;1.08;;
13445;SDS011;6795;51.232;3.764;2023-05-16T04:53:39;9.57;;;1.08;;
13445;SDS011;6795;51.232;3.764;2023-05-16T04:57:44;6.80;;;1.30;;
13445;SDS011;6795;51.232;3.764;2023-05-16T05:02:03;10.15;;;0.70;;
13445;SDS011;6795;51.232;3.764;2023-05-16T05:14:40;7.97;;;0.80;;
13445;SDS011;6795;51.232;3.764;2023-05-16T05:22:29;6.63;;;1.08;;
13445;SDS011;6795;51.232;3.764;2023-05-16T05:26:46;8.75;;;1.05;;
13445;SDS011;6795;51.232;3.764;2023-05-16T05:34:24;4.45;;;0.68;;
13445;SDS011;6795;51.232;3.764;2023-05-16T05:38:04;16.38;;;0.82;;
13445;SDS011;6795;51.232;3.764;2023-05-16T05:41:37;3.15;;;0.30;;
13445;SDS011;6795;51.232;3.764;2023-05-16T05:45:40;8.10;;;0.63;;
13445;SDS011;6795;51.232;3.764;2023-05-16T05:54:12;6.85;;;0.93;;
13445;SDS011;6795;51.232;3.764;2023-05-16T05:58:08;3.90;;;0.80;;
13445;SDS011;6795;51.232;3.764;2023-05-16T06:14:09;6.65;;;0.50;;
13445;SDS011;6795;51.232;3.764;2023-05-16T06:17:21;3.78;;;0.40;;
13445;SDS011;6795;51.232;3.764;2023-05-16T06:21:15;7.32;;;0.70;;
13445;SDS011;6795;51.232;3.764;2023-05-16T06:25:45;8.90;;;0.40;;
13445;SDS011;6795;51.232;3.764;2023-05-16T06:33:33;7.47;;;0.70;;
13445;SDS011;6795;51.232;3.764;2023-05-16T06:37:01;2.75;;;0.30;;
13445;SDS011;6795;51.232;3.764;2023-05-16T06:41:04;5.70;;;0.45;;
13445;SDS011;6795;51.232;3.764;2023-05-16T06:45:15;7.45;;;0.32;;
13445;SDS011;6795;51.232;3.764;2023-05-16T07:01:22;2.58;;;0.20;;
13445;SDS011;6795;51.232;3.764;2023-05-16T07:09:14;4.35;;;0.30;;
13445;SDS011;6795;51.232;3.764;2023-05-16T07:33:30;3.85;;;1.08;;
13445;SDS011;6795;51.232;3.764;2023-05-16T07:37:03;5.15;;;0.77;;
13445;SDS011;6795;51.232;3.764;2023-05-16T07:49:09;1.65;;;0.10;;
13445;SDS011;6795;51.232;3.764;2023-05-16T07:52:44;1.48;;;0.20;;
13445;SDS011;6795;51.232;3.764;2023-05-16T07:56:24;4.00;;;0.90;;
13445;SDS011;6795;51.232;3.764;2023-05-16T08:23:57;2.67;;;0.30;;
13445;SDS011;6795;51.232;3.764;2023-05-16T08:35:31;5.80;;;0.60;;
13445;SDS011;6795;51.232;3.764;2023-05-16T08:46:00;2.47;;;0.90;;
13445;SDS011;6795;51.232;3.764;2023-05-16T08:52:48;2.70;;;0.38;;
13445;SDS011;6795;51.232;3.764;2023-05-16T08:56:30;8.07;;;0.57;;
13445;SDS011;6795;51.232;3.764;2023-05-16T09:07:51;10.27;;;0.50;;
13445;SDS011;6795;51.232;3.764;2023-05-16T09:15:37;1.20;;;0.20;;
13445;SDS011;6795;51.232;3.764;2023-05-16T09:35:47;1.80;;;0.75;;
13445;SDS011;6795;51.232;3.764;2023-05-16T09:39:42;1.83;;;0.28;;
13445;SDS011;6795;51.232;3.764;2023-05-16T10:18:06;1.25;;;0.20;;
13445;SDS011;6795;51.232;3.764;2023-05-16T10:21:39;5.47;;;0.40;;
13445;SDS011;6795;51.232;3.764;2023-05-16T10:25:14;4.65;;;0.25;;
13445;SDS011;6795;51.232;3.764;2023-05-16T10:32:16;3.25;;;0.30;;
13445;SDS011;6795;51.232;3.764;2023-05-16T10:35:55;4.32;;;0.35;;
13445;SDS011;6795;51.232;3.764;2023-05-16T10:44:02;1.52;;;0.10;;
13445;SDS011;6795;51.232;3.764;2023-05-16T10:59:28;2.17;;;0.55;;
13445;SDS011;6795;51.232;3.764;2023-05-16T11:02:46;1.65;;;0.20;;
13445;SDS011;6795;51.232;3.764;2023-05-16T11:06:15;0.20;;;0.10;;
13445;SDS011;6795;51.232;3.764;2023-05-16T11:09:49;3.95;;;0.52;;
13445;SDS011;6795;51.232;3.764;2023-05-16T11:13:34;3.08;;;0.47;;
13445;SDS011;6795;51.232;3.764;2023-05-16T11:17:10;1.67;;;0.30;;
13445;SDS011;6795;51.232;3.764;2023-05-16T11:20:28;1.75;;;0.30;;
13445;SDS011;6795;51.232;3.764;2023-05-16T11:27:45;0.65;;;0.20;;
13445;SDS011;6795;51.232;3.764;2023-05-16T11:30:57;2.45;;;0.30;;
13445;SDS011;6795;51.232;3.764;2023-05-16T11:34:04;1.48;;;0.20;;
13445;SDS011;6795;51.232;3.764;2023-05-16T11:37:25;2.75;;;0.20;;
13445;SDS011;6795;51.232;3.764;2023-05-16T11:40:32;2.00;;;0.25;;
13445;SDS011;6795;51.232;3.764;2023-05-16T11:44:09;2.38;;;0.30;;
13445;SDS011;6795;51.232;3.764;2023-05-16T11:47:20;3.95;;;0.60;;
13445;SDS011;6795;51.232;3.764;2023-05-16T11:50:50;4.13;;;0.40;;
13445;SDS011;6795;51.232;3.764;2023-05-16T11:53:57;3.00;;;0.50;;
13445;SDS011;6795;51.232;3.764;2023-05-16T11:57:35;2.67;;;0.20;;
13445;SDS011;6795;51.232;3.764;2023-05-16T12:00:43;4.55;;;0.40;;
13445;SDS011;6795;51.232;3.764;2023-05-16T12:03:59;1.45;;;0.25;;
13445;SDS011;6795;51.232;3.764;2023-05-16T12:07:03;1.45;;;0.20;;
13445;SDS011;6795;51.232;3.764;2023-05-16T12:10:32;7.10;;;0.35;;
13445;SDS011;6795;51.232;3.764;2023-05-16T12:14:45;2.67;;;0.22;;
13445;SDS011;6795;51.232;3.764;2023-05-16T12:18:49;3.53;;;0.77;;
13445;SDS011;6795;51.232;3.764;2023-05-16T12:21:50;4.80;;;0.20;;
13445;SDS011;6795;51.232;3.764;2023-05-16T12:24:49;2.17;;;0.35;;
13445;SDS011;6795;51.232;3.764;2023-05-16T12:28:31;1.63;;;0.20;;
13445;SDS011;6795;51.232;3.764;2023-05-16T12:32:25;2.15;;;0.30;;
13445;SDS011;6795;51.232;3.764;2023-05-16T12:35:30;3.75;;;0.30;;
13445;SDS011;6795;51.232;3.764;2023-05-16T12:39:10;2.78;;;0.38;;
13445;SDS011;6795;51.232;3.764;2023-05-16T12:42:09;1.58;;;0.28;;
13445;SDS011;6795;51.232;3.764;2023-05-16T12:46:08;3.92;;;0.40;;
13445;SDS011;6795;51.232;3.764;2023-05-16T12:50:07;2.20;;;0.20;;
13445;SDS011;6795;51.232;3.764;2023-05-16T12:52:30;1.17;;;0.20;;
13445;SDS011;6795;51.232;3.764;2023-05-16T12:59:06;2.55;;;0.20;;
13445;SDS011;6795;51.232;3.764;2023-05-16T13:02:13;3.08;;;0.50;;
13445;SDS011;6795;51.232;3.764;2023-05-16T13:05:31;1.48;;;0.13;;
13445;SDS011;6795;51.232;3.764;2023-05-16T13:08:36;2.35;;;0.28;;
13445;SDS011;6795;51.232;3.764;2023-05-16T13:15:35;2.70;;;0.38;;
13445;SDS011;6795;51.232;3.764;2023-05-16T13:18:32;3.50;;;0.30;;
13445;SDS011;6795;51.232;3.764;2023-05-16T13:21:53;0.80;;;0.20;;
13445;SDS011;6795;51.232;3.764;2023-05-16T13:24:54;0.43;;;0.20;;
13445;SDS011;6795;51.232;3.764;2023-05-16T13:28:35;3.47;;;0.20;;
13445;SDS011;6795;51.232;3.764;2023-05-16T13:35:59;1.80;;;0.30;;
13445;SDS011;6795;51.232;3.764;2023-05-16T13:39:08;0.73;;;0.10;;
13445;SDS011;6795;51.232;3.764;2023-05-16T13:42:34;3.10;;;0.30;;
13445;SDS011;6795;51.232;3.764;2023-05-16T13:45:38;2.50;;;0.20;;
13445;SDS011;6795;51.232;3.764;2023-05-16T13:48:45;1.75;;;0.38;;
13445;SDS011;6795;51.232;3.764;2023-05-16T13:51:53;0.50;;;0.10;;
13445;SDS011;6795;51.232;3.764;2023-05-16T13:55:21;0.80;;;0.10;;
13445;SDS011;6795;51.232;3.764;2023-05-16T13:58:32;4.45;;;0.30;;
13445;SDS011;6795;51.232;3.764;2023-05-16T14:02:13;1.15;;;0.20;;
13445;SDS011;6795;51.232;3.764;2023-05-16T14:05:51;1.52;;;0.25;;
13445;SDS011;6795;51.232;3.764;2023-05-16T14:16:36;3.05;;;0.50;;
13445;SDS011;6795;51.232;3.764;2023-05-16T14:19:53;3.53;;;0.30;;
13445;SDS011;6795;51.232;3.764;2023-05-16T14:23:13;1.85;;;0.30;;
13445;SDS011;6795;51.232;3.764;2023-05-16T14:26:18;0.90;;;0.20;;
13445;SDS011;6795;51.232;3.764;2023-05-16T14:32:47;1.73;;;0.40;;
13445;SDS011;6795;51.232;3.764;2023-05-16T14:36:16;1.65;;;0.28;;
13445;SDS011;6795;51.232;3.764;2023-05-16T14:39:40;0.75;;;0.10;;
13445;SDS011;6795;51.232;3.764;2023-05-16T14:45:24;0.30;;;0.10;;
13445;SDS011;6795;51.232;3.764;2023-05-16T14:56:39;0.20;;;0.10;;
13445;SDS011;6795;51.232;3.764;2023-05-16T15:01:00;0.73;;;0.20;;
13445;SDS011;6795;51.232;3.764;2023-05-16T15:03:57;2.20;;;0.10;;
13445;SDS011;6795;51.232;3.764;2023-05-16T15:09:24;1.00;;;0.10;;
13445;SDS011;6795;51.232;3.764;2023-05-16T15:15:06;0.43;;;0.10;;
13445;SDS011;6795;51.232;3.764;2023-05-16T15:18:55;1.55;;;0.20;;
13445;SDS011;6795;51.232;3.764;2023-05-16T15:21:34;1.25;;;0.20;;
13445;SDS011;6795;51.232;3.764;2023-05-16T15:25:06;1.25;;;0.20;;
13445;SDS011;6795;51.232;3.764;2023-05-16T15:32:33;0.73;;;0.15;;
13445;SDS011;6795;51.232;3.764;2023-05-16T15:35:19;1.85;;;0.20;;
13445;SDS011;6795;51.232;3.764;2023-05-16T15:38:59;0.75;;;0.10;;
13445;SDS011;6795;51.232;3.764;2023-05-16T15:42:27;0.22;;;0.10;;
13445;SDS011;6795;51.232;3.764;2023-05-16T15:45:42;0.38;;;0.10;;
13445;SDS011;6795;51.232;3.764;2023-05-16T15:48:49;0.25;;;0.10;;
13445;SDS011;6795;51.232;3.764;2023-05-16T15:52:08;1.45;;;0.20;;
13445;SDS011;6795;51.232;3.764;2023-05-16T15:57:39;0.25;;;0.20;;
13445;SDS011;6795;51.232;3.764;2023-05-16T15:58:56;1.23;;;0.20;;
13445;SDS011;6795;51.232;3.764;2023-05-16T16:02:23;2.08;;;0.20;;
13445;SDS011;6795;51.232;3.764;2023-05-16T16:05:21;1.02;;;0.20;;
13445;SDS011;6795;51.232;3.764;2023-05-16T16:08:35;1.08;;;0.17;;
13445;SDS011;6795;51.232;3.764;2023-05-16T16:11:50;2.17;;;0.20;;
13445;SDS011;6795;51.232;3.764;2023-05-16T16:15:03;2.15;;;0.20;;
13445;SDS011;6795;51.232;3.764;2023-05-16T16:25:42;4.45;;;0.20;;
13445;SDS011;6795;51.232;3.764;2023-05-16T16:28:59;2.67;;;0.43;;
13445;SDS011;6795;51.232;3.764;2023-05-16T16:32:10;3.30;;;0.30;;
13445;SDS011;6795;51.232;3.764;2023-05-16T16:35:36;1.67;;;0.20;;
13445;SDS011;6795;51.232;3.764;2023-05-16T16:42:21;1.00;;;0.40;;
13445;SDS011;6795;51.232;3.764;2023-05-16T16:45:30;0.65;;;0.20;;
13445;SDS011;6795;51.232;3.764;2023-05-16T16:48:49;3.17;;;0.40;;
13445;SDS011;6795;51.232;3.764;2023-05-16T16:52:07;0.52;;;0.20;;
13445;SDS011;6795;51.232;3.764;2023-05-16T16:55:16;1.50;;;0.30;;
13445;SDS011;6795;51.232;3.764;2023-05-16T16:58:28;3.67;;;0.50;;
13445;SDS011;6795;51.232;3.764;2023-05-16T17:01:32;3.47;;;0.40;;
13445;SDS011;6795;51.232;3.764;2023-05-16T17:04:54;2.65;;;0.40;;
13445;SDS011;6795;51.232;3.764;2023-05-16T17:08:19;3.25;;;0.68;;
13445;SDS011;6795;51.232;3.764;2023-05-16T17:11:22;2.45;;;0.70;;
13445;SDS011;6795;51.232;3.764;2023-05-16T17:18:11;2.92;;;0.85;;
13445;SDS011;6795;51.232;3.764;2023-05-16T17:21:19;2.13;;;0.70;;
13445;SDS011;6795;51.232;3.764;2023-05-16T17:24:27;3.90;;;0.85;;
13445;SDS011;6795;51.232;3.764;2023-05-16T17:27:31;3.78;;;0.93;;
13445;SDS011;6795;51.232;3.764;2023-05-16T17:30:30;4.88;;;0.88;;
13445;SDS011;6795;51.232;3.764;2023-05-16T17:33:28;4.38;;;1.02;;
13445;SDS011;6795;51.232;3.764;2023-05-16T17:36:33;4.65;;;1.00;;
13445;SDS011;6795;51.232;3.764;2023-05-16T17:39:55;5.60;;;1.52;;
13445;SDS011;6795;51.232;3.764;2023-05-16T17:43:09;5.88;;;1.10;;
13445;SDS011;6795;51.232;3.764;2023-05-16T17:46:27;3.38;;;1.52;;
13445;SDS011;6795;51.232;3.764;2023-05-16T17:49:56;3.42;;;1.27;;
13445;SDS011;6795;51.232;3.764;2023-05-16T17:53:11;5.72;;;1.27;;
13445;SDS011;6795;51.232;3.764;2023-05-16T17:56:15;4.88;;;1.92;;
13445;SDS011;6795;51.232;3.764;2023-05-16T17:59:40;6.90;;;1.70;;
13445;SDS011;6795;51.232;3.764;2023-05-16T18:02:47;5.13;;;1.55;;
13445;SDS011;6795;51.232;3.764;2023-05-16T18:06:09;6.05;;;1.30;;
13445;SDS011;6795;51.232;3.764;2023-05-16T18:09:23;5.85;;;2.30;;
13445;SDS011;6795;51.232;3.764;2023-05-16T18:12:29;9.20;;;2.33;;
13445;SDS011;6795;51.232;3.764;2023-05-16T18:16:09;4.70;;;2.08;;
13445;SDS011;6795;51.232;3.764;2023-05-16T18:29:43;3.60;;;1.58;;
13445;SDS011;6795;51.232;3.764;2023-05-16T18:32:51;6.80;;;1.75;;
13445;SDS011;6795;51.232;3.764;2023-05-16T18:36:17;5.05;;;0.95;;
13445;SDS011;6795;51.232;3.764;2023-05-16T18:39:26;3.95;;;1.27;;
13445;SDS011;6795;51.232;3.764;2023-05-16T18:42:28;3.10;;;0.93;;
13445;SDS011;6795;51.232;3.764;2023-05-16T18:45:53;8.18;;;1.20;;
13445;SDS011;6795;51.232;3.764;2023-05-16T18:48:58;6.07;;;1.20;;
13445;SDS011;6795;51.232;3.764;2023-05-16T18:52:13;4.30;;;1.05;;
13445;SDS011;6795;51.232;3.764;2023-05-16T18:55:10;6.90;;;1.60;;
13445;SDS011;6795;51.232;3.764;2023-05-16T18:58:38;9.75;;;1.10;;
13445;SDS011;6795;51.232;3.764;2023-05-16T19:02:09;3.20;;;1.35;;
13445;SDS011;6795;51.232;3.764;2023-05-16T19:05:17;11.85;;;1.58;;
13445;SDS011;6795;51.232;3.764;2023-05-16T19:08:39;9.20;;;1.35;;
13445;SDS011;6795;51.232;3.764;2023-05-16T19:11:44;6.10;;;1.42;;
13445;SDS011;6795;51.232;3.764;2023-05-16T19:15:25;4.75;;;1.45;;
13445;SDS011;6795;51.232;3.764;2023-05-16T19:26:18;5.50;;;1.73;;
13445;SDS011;6795;51.232;3.764;2023-05-16T19:29:36;5.63;;;2.28;;
13445;SDS011;6795;51.232;3.764;2023-05-16T19:32:55;6.63;;;1.70;;
13445;SDS011;6795;51.232;3.764;2023-05-16T19:36:06;7.18;;;1.70;;
13445;SDS011;6795;51.232;3.764;2023-05-16T19:49:50;2.08;;;0.90;;
13445;SDS011;6795;51.232;3.764;2023-05-16T19:53:20;10.48;;;1.00;;
13445;SDS011;6795;51.232;3.764;2023-05-16T19:57:12;2.85;;;0.90;;
13445;SDS011;6795;51.232;3.764;2023-05-16T20:00:00;5.20;;;0.75;;
13445;SDS011;6795;51.232;3.764;2023-05-16T20:07:04;9.00;;;1.20;;
13445;SDS011;6795;51.232;3.764;2023-05-16T20:10:20;9.63;;;1.58;;
13445;SDS011;6795;51.232;3.764;2023-05-16T20:14:08;8.38;;;1.10;;
13445;SDS011;6795;51.232;3.764;2023-05-16T20:20:33;6.55;;;1.40;;
13445;SDS011;6795;51.232;3.764;2023-05-16T20:24:28;8.70;;;1.50;;
13445;SDS011;6795;51.232;3.764;2023-05-16T20:27:18;6.70;;;1.27;;
13445;SDS011;6795;51.232;3.764;2023-05-16T20:30:49;9.38;;;1.80;;
13445;SDS011;6795;51.232;3.764;2023-05-16T20:33:52;15.93;;;1.90;;
13445;SDS011;6795;51.232;3.764;2023-05-16T20:37:10;6.47;;;1.20;;
13445;SDS011;6795;51.232;3.764;2023-05-16T20:40:46;9.25;;;1.40;;
13445;SDS011;6795;51.232;3.764;2023-05-16T20:44:03;4.82;;;1.50;;
13445;SDS011;6795;51.232;3.764;2023-05-16T20:48:03;7.35;;;1.33;;
13445;SDS011;6795;51.232;3.764;2023-05-16T20:53:18;6.43;;;1.50;;
13445;SDS011;6795;51.232;3.764;2023-05-16T20:55:06;7.32;;;1.40;;
13445;SDS011;6795;51.232;3.764;2023-05-16T20:58:10;7.63;;;1.90;;
13445;SDS011;6795;51.232;3.764;2023-05-16T21:01:18;6.50;;;1.70;;
13445;SDS011;6795;51.232;3.764;2023-05-16T21:04:18;11.55;;;2.10;;
13445;SDS011;6795;51.232;3.764;2023-05-16T21:07:43;11.55;;;1.92;;
13445;SDS011;6795;51.232;3.764;2023-05-16T21:26:17;11.60;;;2.08;;
13445;SDS011;6795;51.232;3.764;2023-05-16T21:29:42;9.13;;;2.22;;
13445;SDS011;6795;51.232;3.764;2023-05-16T21:33:24;12.70;;;2.30;;
13445;SDS011;6795;51.232;3.764;2023-05-16T21:36:15;16.13;;;2.25;;
13445;SDS011;6795;51.232;3.764;2023-05-16T21:42:40;9.30;;;1.95;;
13445;SDS011;6795;51.232;3.764;2023-05-16T21:46:23;10.95;;;2.45;;
13445;SDS011;6795;51.232;3.764;2023-05-16T21:49:54;12.60;;;2.47;;
13445;SDS011;6795;51.232;3.764;2023-05-16T21:53:05;12.43;;;2.25;;
13445;SDS011;6795;51.232;3.764;2023-05-16T21:56:31;9.88;;;2.67;;
13445;SDS011;6795;51.232;3.764;2023-05-16T21:59:59;5.22;;;2.00;;
13445;SDS011;6795;51.232;3.764;2023-05-16T22:03:28;8.50;;;2.33;;
13445;SDS011;6795;51.232;3.764;2023-05-16T22:06:45;11.20;;;2.67;;
13445;SDS011;6795;51.232;3.764;2023-05-16T22:10:15;11.00;;;2.40;;
13445;SDS011;6795;51.232;3.764;2023-05-16T22:14:12;16.25;;;3.03;;
13445;SDS011;6795;51.232;3.764;2023-05-16T22:17:19;8.05;;;2.65;;
13445;SDS011;6795;51.232;3.764;2023-05-16T22:20:34;16.48;;;3.78;;
13445;SDS011;6795;51.232;3.764;2023-05-16T22:23:47;10.25;;;3.47;;
13445;SDS011;6795;51.232;3.764;2023-05-16T22:27:14;16.92;;;3.20;;
13445;SDS011;6795;51.232;3.764;2023-05-16T22:30:58;10.55;;;3.20;;
13445;SDS011;6795;51.232;3.764;2023-05-16T22:34:09;13.45;;;3.03;;
13445;SDS011;6795;51.232;3.764;2023-05-16T22:37:04;12.00;;;3.95;;
13445;SDS011;6795;51.232;3.764;2023-05-16T22:40:20;13.48;;;4.72;;
13445;SDS011;6795;51.232;3.764;2023-05-16T22:43:57;18.33;;;4.88;;
13445;SDS011;6795;51.232;3.764;2023-05-16T22:47:01;13.32;;;4.53;;
13445;SDS011;6795;51.232;3.764;2023-05-16T22:50:22;15.10;;;4.85;;
13445;SDS011;6795;51.232;3.764;2023-05-16T22:53:45;16.65;;;5.53;;
13445;SDS011;6795;51.232;3.764;2023-05-16T22:56:55;15.48;;;5.45;;
13445;SDS011;6795;51.232;3.764;2023-05-16T22:59:54;18.88;;;6.00;;
13445;SDS011;6795;51.232;3.764;2023-05-16T23:05:15;18.45;;;5.25;;
13445;SDS011;6795;51.232;3.764;2023-05-16T23:16:50;21.38;;;6.55;;
13445;SDS011;6795;51.232;3.764;2023-05-16T23:19:53;13.13;;;6.75;;
13445;SDS011;6795;51.232;3.764;2023-05-16T23:22:46;15.18;;;6.97;;
13445;SDS011;6795;51.232;3.764;2023-05-16T23:25:55;15.52;;;6.65;;
13445;SDS011;6795;51.232;3.764;2023-05-16T23:28:57;19.38;;;8.23;;
13445;SDS011;6795;51.232;3.764;2023-05-16T23:36:03;18.52;;;8.27;;
13445;SDS011;6795;51.232;3.764;2023-05-16T23:39:09;21.13;;;8.38;;
13445;SDS011;6795;51.232;3.764;2023-05-16T23:42:28;20.85;;;8.20;;
13445;SDS011;6795;51.232;3.764;2023-05-16T23:45:36;21.40;;;8.80;;
13445;SDS011;6795;51.232;3.764;2023-05-16T23:49:02;23.25;;;9.02;;
13445;SDS011;6795;51.232;3.764;2023-05-16T23:59:45;25.73;;;9.45;;
